createdAt,value
2019-01-30T00:00:39.261Z,77.88
2019-01-30T00:03:05.095Z,77.94
2019-01-30T00:05:30.965Z,77.87
2019-01-30T00:07:56.815Z,77.96
2019-01-30T00:10:22.737Z,77.92
2019-01-30T00:12:48.688Z,77.54
2019-01-30T00:15:14.624Z,77.93
2019-01-30T00:17:40.600Z,77.61
2019-01-30T00:20:09.629Z,77.62
2019-01-30T00:22:35.502Z,77.76
2019-01-30T00:25:01.376Z,77.25
2019-01-30T00:27:27.281Z,77.68
2019-01-30T00:29:53.163Z,77.75
2019-01-30T00:32:19.213Z,77.94
2019-01-30T00:34:45.198Z,77.28
2019-01-30T00:37:11.104Z,77.75
2019-01-30T00:39:36.976Z,78.33
2019-01-30T00:42:02.890Z,77.93
2019-01-30T00:44:29.538Z,77.71
2019-01-30T00:46:55.484Z,77.56
2019-01-30T00:49:21.353Z,78.05
2019-01-30T00:51:47.265Z,78.28
2019-01-30T00:54:13.165Z,78.29
2019-01-30T00:56:39.083Z,77.74
2019-01-30T00:59:04.954Z,77.65
2019-01-30T01:01:30.832Z,77.75
2019-01-30T01:03:56.848Z,77.61
2019-01-30T01:06:22.779Z,77.55
2019-01-30T01:08:48.761Z,77.01
2019-01-30T01:11:14.626Z,77.39
2019-01-30T01:13:40.547Z,77.53
2019-01-30T01:16:06.409Z,77.71
2019-01-30T01:18:32.281Z,77.46
2019-01-30T01:20:58.183Z,77.60
2019-01-30T01:23:24.095Z,77.95
2019-01-30T01:25:49.992Z,77.64
2019-01-30T01:28:15.869Z,77.75
2019-01-30T01:30:41.792Z,77.83
2019-01-30T01:33:07.717Z,77.65
2019-01-30T01:35:33.624Z,78.36
2019-01-30T01:37:59.491Z,77.99
2019-01-30T01:40:26.011Z,77.84
2019-01-30T01:42:51.848Z,78.07
2019-01-30T01:45:20.785Z,78.26
2019-01-30T01:47:46.655Z,78.26
2019-01-30T01:50:17.369Z,78.36
2019-01-30T01:52:43.487Z,77.88
2019-01-30T01:55:10.757Z,77.87
2019-01-30T01:57:36.671Z,77.59
2019-01-30T02:00:06.238Z,77.69
2019-01-30T02:02:32.148Z,77.60
2019-01-30T02:04:58.017Z,77.70
2019-01-30T02:07:23.882Z,77.17
2019-01-30T02:09:49.829Z,77.39
2019-01-30T02:12:15.839Z,77.54
2019-01-30T02:14:41.736Z,77.81
2019-01-30T02:17:07.604Z,77.91
2019-01-30T02:19:33.536Z,77.79
2019-01-30T02:21:59.407Z,77.42
2019-01-30T02:24:25.304Z,77.56
2019-01-30T02:26:51.204Z,77.05
2019-01-30T02:29:17.113Z,77.47
2019-01-30T02:31:43.024Z,77.67
2019-01-30T02:34:08.917Z,77.77
2019-01-30T02:36:36.738Z,77.90
2019-01-30T02:39:05.411Z,78.58
2019-01-30T02:41:31.343Z,78.52
2019-01-30T02:43:57.238Z,77.58
2019-01-30T02:46:23.149Z,78.21
2019-01-30T02:48:49.048Z,78.03
2019-01-30T02:51:14.922Z,77.74
2019-01-30T02:53:40.825Z,77.75
2019-01-30T02:56:06.743Z,77.73
2019-01-30T02:58:32.693Z,78.15
2019-01-30T03:00:59.698Z,78.23
2019-01-30T03:03:25.641Z,77.57
2019-01-30T03:05:51.579Z,77.68
2019-01-30T03:08:17.478Z,77.95
2019-01-30T03:10:43.350Z,78.04
2019-01-30T03:13:09.259Z,77.82
2019-01-30T03:15:35.131Z,77.64
2019-01-30T03:18:01.034Z,78.47
2019-01-30T03:20:27.401Z,78.06
2019-01-30T03:22:53.302Z,78.76
2019-01-30T03:25:21.081Z,78.36
2019-01-30T03:27:47.005Z,79.19
2019-01-30T03:30:18.371Z,78.71
2019-01-30T03:32:44.268Z,79.14
2019-01-30T03:35:14.364Z,79.68
2019-01-30T03:37:40.435Z,79.75
2019-01-30T03:40:10.253Z,79.24
2019-01-30T03:42:36.136Z,78.84
2019-01-30T03:45:03.546Z,78.73
2019-01-30T03:47:29.516Z,78.70
2019-01-30T03:49:55.420Z,79.14
2019-01-30T03:52:21.327Z,79.34
2019-01-30T03:54:47.239Z,79.02
2019-01-30T03:57:13.157Z,79.48
2019-01-30T03:59:39.014Z,79.50
2019-01-30T04:02:06.880Z,79.54
2019-01-30T04:04:32.852Z,79.46
2019-01-30T04:06:58.717Z,78.93
2019-01-30T04:09:24.656Z,79.29
2019-01-30T04:11:50.558Z,79.07
2019-01-30T04:14:16.412Z,78.61
2019-01-30T04:16:42.420Z,78.54
2019-01-30T04:19:08.315Z,78.81
2019-01-30T04:21:34.219Z,78.73
2019-01-30T04:24:00.134Z,78.58
2019-01-30T04:26:26.005Z,78.39
2019-01-30T04:28:51.922Z,78.66
2019-01-30T04:31:20.583Z,78.86
2019-01-30T04:33:46.586Z,79.20
2019-01-30T04:36:12.458Z,79.33
2019-01-30T04:38:38.353Z,79.10
2019-01-30T04:41:04.223Z,78.87
2019-01-30T04:43:30.144Z,79.00
2019-01-30T04:45:56.047Z,79.63
2019-01-30T04:48:21.961Z,79.98
2019-01-30T04:50:47.835Z,80.14
2019-01-30T04:53:13.747Z,80.20
2019-01-30T04:55:39.611Z,79.76
2019-01-30T04:58:05.606Z,79.42
2019-01-30T05:00:31.534Z,79.73
2019-01-30T05:02:57.524Z,79.81
2019-01-30T05:05:23.472Z,79.76
2019-01-30T05:07:49.332Z,79.83
2019-01-30T05:10:15.279Z,79.75
2019-01-30T05:12:41.172Z,79.49
2019-01-30T05:15:12.422Z,79.97
2019-01-30T05:17:38.298Z,80.68
2019-01-30T05:20:09.695Z,80.34
2019-01-30T05:22:35.478Z,80.28
2019-01-30T05:25:01.402Z,80.02
2019-01-30T05:27:29.444Z,80.02
2019-01-30T05:29:55.718Z,80.02
2019-01-30T05:32:21.681Z,79.79
2019-01-30T05:34:47.588Z,79.65
2019-01-30T05:37:13.510Z,79.27
2019-01-30T05:39:39.419Z,79.59
2019-01-30T05:42:05.378Z,79.44
2019-01-30T05:44:31.213Z,79.29
2019-01-30T05:46:57.156Z,78.95
2019-01-30T05:49:23.062Z,78.90
2019-01-30T05:51:48.927Z,78.67
2019-01-30T05:54:14.836Z,78.72
2019-01-30T05:56:40.722Z,78.76
2019-01-30T05:59:06.639Z,78.66
2019-01-30T06:01:32.519Z,78.65
2019-01-30T06:03:58.421Z,78.40
2019-01-30T06:06:24.287Z,78.56
2019-01-30T06:08:50.205Z,78.33
2019-01-30T06:11:16.133Z,78.70
2019-01-30T06:13:42.003Z,78.72
2019-01-30T06:16:07.913Z,78.68
2019-01-30T06:18:33.813Z,78.39
2019-01-30T06:20:59.725Z,78.29
2019-01-30T06:23:26.510Z,78.53
2019-01-30T06:25:52.446Z,78.67
2019-01-30T06:28:18.420Z,78.57
2019-01-30T06:30:44.361Z,78.25
2019-01-30T06:33:10.249Z,79.29
2019-01-30T06:35:36.138Z,78.88
2019-01-30T06:38:02.170Z,78.21
2019-01-30T06:40:30.026Z,78.40
2019-01-30T06:42:55.936Z,78.23
2019-01-30T06:45:21.912Z,78.39
2019-01-30T06:47:47.874Z,78.27
2019-01-30T06:50:13.814Z,78.45
2019-01-30T06:52:39.692Z,78.27
2019-01-30T06:55:05.635Z,78.47
2019-01-30T06:57:31.544Z,78.52
2019-01-30T06:59:57.460Z,78.36
2019-01-30T07:02:32.091Z,78.52
2019-01-30T07:04:51.282Z,78.50
2019-01-30T07:07:17.281Z,78.40
2019-01-30T07:09:43.201Z,78.75
2019-01-30T07:12:09.084Z,78.00
2019-01-30T07:14:35.003Z,77.84
2019-01-30T07:17:00.893Z,78.13
2019-01-30T07:19:26.777Z,78.41
2019-01-30T07:21:56.068Z,78.14
2019-01-30T07:24:22.053Z,77.94
2019-01-30T07:26:47.967Z,77.59
2019-01-30T07:29:14.086Z,77.45
2019-01-30T07:31:40.007Z,77.23
2019-01-30T07:34:05.926Z,77.35
2019-01-30T07:36:31.833Z,77.17
2019-01-30T07:38:57.700Z,77.27
2019-01-30T07:41:23.615Z,77.64
2019-01-30T07:43:49.485Z,77.48
2019-01-30T07:46:15.396Z,77.15
2019-01-30T07:48:41.311Z,77.15
2019-01-30T07:51:07.248Z,77.18
2019-01-30T07:53:33.232Z,77.26
2019-01-30T07:55:59.129Z,77.95
2019-01-30T07:58:25.049Z,77.40
2019-01-30T08:00:50.929Z,77.04
2019-01-30T08:03:17.152Z,76.93
2019-01-30T08:05:43.065Z,77.14
2019-01-30T08:08:08.980Z,76.87
2019-01-30T08:10:34.902Z,76.89
2019-01-30T08:13:00.815Z,76.58
2019-01-30T08:15:26.670Z,76.59
2019-01-30T08:17:55.008Z,76.38
2019-01-30T08:20:21.378Z,76.55
2019-01-30T08:22:47.525Z,76.84
2019-01-30T08:25:15.686Z,76.18
2019-01-30T08:27:41.971Z,76.14
2019-01-30T08:30:27.421Z,76.15
2019-01-30T08:33:03.784Z,76.89
2019-01-30T08:35:23.074Z,77.05
2019-01-30T08:37:48.986Z,76.99
2019-01-30T08:40:15.015Z,76.80
2019-01-30T08:42:40.879Z,76.66
2019-01-30T08:45:16.443Z,76.47
2019-01-30T08:47:42.316Z,76.06
2019-01-30T08:50:10.935Z,76.74
2019-01-30T08:52:36.804Z,76.53
2019-01-30T08:55:04.914Z,76.11
2019-01-30T08:57:30.793Z,75.69
2019-01-30T08:59:56.735Z,75.51
2019-01-30T09:02:23.998Z,75.48
2019-01-30T09:04:49.869Z,74.97
2019-01-30T09:07:15.783Z,74.69
2019-01-30T09:09:41.689Z,74.27
2019-01-30T09:12:07.590Z,74.05
2019-01-30T09:14:33.461Z,73.79
2019-01-30T09:16:59.633Z,73.21
2019-01-30T09:19:25.540Z,72.93
2019-01-30T09:21:51.452Z,72.91
2019-01-30T09:24:17.337Z,73.05
2019-01-30T09:26:43.288Z,72.56
2019-01-30T09:29:09.217Z,72.03
2019-01-30T09:31:35.132Z,72.25
2019-01-30T09:34:01.032Z,71.22
2019-01-30T09:36:26.960Z,71.05
2019-01-30T09:38:52.832Z,71.21
2019-01-30T09:41:18.748Z,70.87
2019-01-30T09:43:44.673Z,71.61
2019-01-30T09:46:10.570Z,70.25
2019-01-30T09:48:37.054Z,69.81
2019-01-30T09:51:03.080Z,71.15
2019-01-30T09:53:29.025Z,70.35
2019-01-30T09:55:54.905Z,70.03
2019-01-30T09:58:20.808Z,70.09
2019-01-30T10:00:46.698Z,68.96
2019-01-30T10:03:12.615Z,68.59
2019-01-30T10:05:38.490Z,69.52
2019-01-30T10:08:04.488Z,68.62
2019-01-30T10:10:36.048Z,68.00
2019-01-30T10:13:02.465Z,67.76
2019-01-30T10:15:36.129Z,67.50
2019-01-30T10:18:02.013Z,67.39
2019-01-30T10:20:29.522Z,68.35
2019-01-30T10:22:55.397Z,66.81
2019-01-30T10:25:21.302Z,66.33
2019-01-30T10:27:47.195Z,67.15
2019-01-30T10:30:18.740Z,66.93
2019-01-30T10:32:44.636Z,67.33
2019-01-30T10:35:10.501Z,67.19
2019-01-30T10:37:36.410Z,66.74
2019-01-30T10:40:06.111Z,66.72
2019-01-30T10:42:32.007Z,67.58
2019-01-30T10:44:57.879Z,66.63
2019-01-30T10:47:23.785Z,67.30
2019-01-30T10:49:49.709Z,66.53
2019-01-30T10:52:15.611Z,66.32
2019-01-30T10:54:41.624Z,66.37
2019-01-30T10:57:07.503Z,66.72
2019-01-30T10:59:33.424Z,67.52
2019-01-30T11:01:59.308Z,65.93
2019-01-30T11:04:25.229Z,66.21
2019-01-30T11:06:54.084Z,66.53
2019-01-30T11:09:20.188Z,66.53
2019-01-30T11:11:46.057Z,66.47
2019-01-30T11:14:11.982Z,66.38
2019-01-30T11:16:37.858Z,65.12
2019-01-30T11:19:03.992Z,65.00
2019-01-30T11:21:29.971Z,64.71
2019-01-30T11:23:55.850Z,65.36
2019-01-30T11:26:21.753Z,63.56
2019-01-30T11:28:47.706Z,63.37
2019-01-30T11:31:13.744Z,63.26
2019-01-30T11:33:39.670Z,63.52
2019-01-30T11:36:05.578Z,63.23
2019-01-30T11:38:31.456Z,64.50
2019-01-30T11:40:57.470Z,64.47
2019-01-30T11:43:23.335Z,64.89
2019-01-30T11:45:49.258Z,63.10
2019-01-30T11:48:15.153Z,63.63
2019-01-30T11:50:41.087Z,63.52
2019-01-30T11:53:07.058Z,64.00
2019-01-30T11:55:33.020Z,63.63
2019-01-30T11:57:58.904Z,63.15
2019-01-30T12:00:34.232Z,63.14
2019-01-30T12:03:00.127Z,63.16
2019-01-30T12:05:26.011Z,63.43
2019-01-30T12:07:51.929Z,63.68
2019-01-30T12:10:17.829Z,63.56
2019-01-30T12:12:43.740Z,63.81
2019-01-30T12:15:13.428Z,63.07
2019-01-30T12:17:40.328Z,63.92
2019-01-30T12:20:09.371Z,64.02
2019-01-30T12:22:35.253Z,63.30
2019-01-30T12:25:01.155Z,63.11
2019-01-30T12:27:27.082Z,63.46
2019-01-30T12:29:53.103Z,63.69
2019-01-30T12:32:18.984Z,63.74
2019-01-30T12:34:44.992Z,63.79
2019-01-30T12:37:10.918Z,64.35
2019-01-30T12:39:36.787Z,64.04
2019-01-30T12:42:02.773Z,64.54
2019-01-30T12:44:28.643Z,64.38
2019-01-30T12:46:54.553Z,63.83
2019-01-30T12:49:20.449Z,63.77
2019-01-30T12:51:46.369Z,63.57
2019-01-30T12:54:12.508Z,63.50
2019-01-30T12:56:38.416Z,63.52
2019-01-30T12:59:04.272Z,63.37
2019-01-30T13:01:31.021Z,63.39
2019-01-30T13:03:56.964Z,63.39
2019-01-30T13:06:22.874Z,62.66
2019-01-30T13:08:48.740Z,62.47
2019-01-30T13:11:14.717Z,62.32
2019-01-30T13:13:40.592Z,62.20
2019-01-30T13:16:06.458Z,62.83
2019-01-30T13:18:32.411Z,62.40
2019-01-30T13:20:58.283Z,61.96
2019-01-30T13:23:24.178Z,62.86
2019-01-30T13:25:50.068Z,62.22
2019-01-30T13:28:16.008Z,62.57
2019-01-30T13:30:43.795Z,62.48
2019-01-30T13:33:09.811Z,62.87
2019-01-30T13:35:35.686Z,62.75
2019-01-30T13:38:01.580Z,63.13
2019-01-30T13:40:29.637Z,63.39
2019-01-30T13:42:55.580Z,63.27
2019-01-30T13:45:21.449Z,63.68
2019-01-30T13:47:47.363Z,64.32
2019-01-30T13:50:16.677Z,63.86
2019-01-30T13:52:42.557Z,63.04
2019-01-30T13:55:09.525Z,63.50
2019-01-30T13:57:35.460Z,63.71
2019-01-30T14:00:01.356Z,63.63
2019-01-30T14:02:27.207Z,63.47
2019-01-30T14:04:59.290Z,64.04
2019-01-30T14:07:20.989Z,63.63
2019-01-30T14:09:46.906Z,64.46
2019-01-30T14:12:12.845Z,64.35
2019-01-30T14:14:38.744Z,64.07
2019-01-30T14:17:04.643Z,64.99
2019-01-30T14:19:30.556Z,64.65
2019-01-30T14:21:56.400Z,65.34
2019-01-30T14:24:22.285Z,64.67
2019-01-30T14:26:48.206Z,65.53
2019-01-30T14:29:14.070Z,65.26
2019-01-30T14:31:39.979Z,64.98
2019-01-30T14:34:05.859Z,64.87
2019-01-30T14:36:31.751Z,65.34
2019-01-30T14:38:57.637Z,65.11
2019-01-30T14:41:23.554Z,65.07
2019-01-30T14:43:49.457Z,64.91
2019-01-30T14:46:15.428Z,65.35
2019-01-30T14:48:41.283Z,65.35
2019-01-30T14:51:07.277Z,66.16
2019-01-30T14:53:33.157Z,66.10
2019-01-30T14:55:59.039Z,65.22
2019-01-30T14:58:25.005Z,65.74
2019-01-30T15:00:50.943Z,65.30
2019-01-30T15:03:16.814Z,66.68
2019-01-30T15:05:42.740Z,66.58
2019-01-30T15:08:08.625Z,66.25
2019-01-30T15:10:34.470Z,66.16
2019-01-30T15:13:00.411Z,66.22
2019-01-30T15:15:28.494Z,66.03
2019-01-30T15:17:54.394Z,65.69
2019-01-30T15:20:22.261Z,65.46
2019-01-30T15:22:48.170Z,65.50
2019-01-30T15:25:16.152Z,65.40
2019-01-30T15:27:42.189Z,66.21
2019-01-30T15:30:20.084Z,66.38
2019-01-30T15:32:46.012Z,66.65
2019-01-30T15:35:11.992Z,66.40
2019-01-30T15:37:37.903Z,66.93
2019-01-30T15:40:10.627Z,66.54
2019-01-30T15:42:36.514Z,66.21
2019-01-30T15:45:09.910Z,67.32
2019-01-30T15:47:36.483Z,67.29
2019-01-30T15:50:06.220Z,67.77
2019-01-30T15:52:32.172Z,68.19
2019-01-30T15:54:58.102Z,67.90
2019-01-30T15:57:24.035Z,68.59
2019-01-30T15:59:51.227Z,68.39
2019-01-30T16:02:17.150Z,67.86
2019-01-30T16:04:43.082Z,68.38
2019-01-30T16:07:08.963Z,68.10
2019-01-30T16:09:34.868Z,68.02
2019-01-30T16:12:00.744Z,67.88
2019-01-30T16:14:26.773Z,68.20
2019-01-30T16:16:52.631Z,67.70
2019-01-30T16:19:18.650Z,67.86
2019-01-30T16:21:44.538Z,67.46
2019-01-30T16:24:10.476Z,67.72
2019-01-30T16:26:36.503Z,67.40
2019-01-30T16:29:02.417Z,67.39
2019-01-30T16:31:28.296Z,67.31
2019-01-30T16:33:54.235Z,66.90
2019-01-30T16:36:20.250Z,66.64
2019-01-30T16:38:46.166Z,66.81
2019-01-30T16:41:12.034Z,66.69
2019-01-30T16:43:37.975Z,66.56
2019-01-30T16:46:04.065Z,66.39
2019-01-30T16:48:30.943Z,66.10
2019-01-30T16:50:57.008Z,66.67
2019-01-30T16:53:23.033Z,66.65
2019-01-30T16:55:48.898Z,65.65
2019-01-30T16:58:14.932Z,66.45
2019-01-30T17:00:40.846Z,65.82
2019-01-30T17:03:08.456Z,66.38
2019-01-30T17:05:34.341Z,67.13
2019-01-30T17:08:00.271Z,66.50
2019-01-30T17:10:26.224Z,66.60
2019-01-30T17:12:52.148Z,66.25
2019-01-30T17:15:29.929Z,65.58
2019-01-30T17:17:55.839Z,66.21
2019-01-30T17:20:24.952Z,66.42
2019-01-30T17:22:50.828Z,66.28
2019-01-30T17:25:16.856Z,66.75
2019-01-30T17:27:42.728Z,66.84
2019-01-30T17:30:14.882Z,66.82
2019-01-30T17:32:40.799Z,66.99
2019-01-30T17:35:06.923Z,66.28
2019-01-30T17:37:32.846Z,66.53
2019-01-30T17:39:58.768Z,66.84
2019-01-30T17:42:24.644Z,66.84
2019-01-30T17:44:50.564Z,66.39
2019-01-30T17:47:16.448Z,66.91
2019-01-30T17:49:42.478Z,67.55
2019-01-30T17:52:08.359Z,66.86
2019-01-30T17:54:34.275Z,66.82
2019-01-30T17:57:00.171Z,66.55
2019-01-30T17:59:26.107Z,66.43
2019-01-30T18:01:51.977Z,66.70
2019-01-30T18:04:17.884Z,67.41
2019-01-30T18:06:43.791Z,66.62
2019-01-30T18:09:09.725Z,65.98
2019-01-30T18:11:35.661Z,66.05
2019-01-30T18:14:01.585Z,66.42
2019-01-30T18:16:27.569Z,67.12
2019-01-30T18:18:53.497Z,66.87
2019-01-30T18:21:19.486Z,67.06
2019-01-30T18:23:45.519Z,67.14
2019-01-30T18:26:11.396Z,66.97
2019-01-30T18:28:37.323Z,67.25
2019-01-30T18:31:03.190Z,67.04
2019-01-30T18:33:29.152Z,67.11
2019-01-30T18:35:55.060Z,67.42
2019-01-30T18:38:20.972Z,66.44
2019-01-30T18:40:46.840Z,66.58
2019-01-30T18:43:12.835Z,67.23
2019-01-30T18:45:38.752Z,66.74
2019-01-30T18:48:04.801Z,66.84
2019-01-30T18:50:30.720Z,66.84
2019-01-30T18:52:56.673Z,66.41
2019-01-30T18:55:22.776Z,66.76
2019-01-30T18:57:48.754Z,66.35
2019-01-30T19:00:21.008Z,66.32
2019-01-30T19:02:46.889Z,66.63
2019-01-30T19:05:13.551Z,66.23
2019-01-30T19:07:39.662Z,66.60
2019-01-30T19:10:11.781Z,67.04
2019-01-30T19:12:37.708Z,67.11
2019-01-30T19:15:09.496Z,67.31
2019-01-30T19:17:35.214Z,67.15
2019-01-30T19:20:01.157Z,67.48
2019-01-30T19:22:27.159Z,67.30
2019-01-30T19:24:53.065Z,67.20
2019-01-30T19:27:19.138Z,67.55
2019-01-30T19:29:45.062Z,67.37
2019-01-30T19:32:14.647Z,67.86
2019-01-30T19:34:40.819Z,67.40
2019-01-30T19:37:06.691Z,66.95
2019-01-30T19:39:33.011Z,67.37
2019-01-30T19:41:58.917Z,67.77
2019-01-30T19:44:24.984Z,67.82
2019-01-30T19:46:50.965Z,67.58
2019-01-30T19:49:16.855Z,67.56
2019-01-30T19:51:42.821Z,67.09
2019-01-30T19:54:08.724Z,67.39
2019-01-30T19:56:34.618Z,67.54
2019-01-30T19:59:00.538Z,67.61
2019-01-30T20:01:35.935Z,67.73
2019-01-30T20:03:54.340Z,67.41
2019-01-30T20:06:20.243Z,67.14
2019-01-30T20:08:46.155Z,67.34
2019-01-30T20:11:12.179Z,67.90
2019-01-30T20:13:38.063Z,67.53
2019-01-30T20:16:04.065Z,67.62
2019-01-30T20:18:29.934Z,67.50
2019-01-30T20:20:55.858Z,67.84
2019-01-30T20:23:21.794Z,67.65
2019-01-30T20:25:47.715Z,68.08
2019-01-30T20:28:13.642Z,68.14
2019-01-30T20:30:39.681Z,68.24
2019-01-30T20:33:05.649Z,67.93
2019-01-30T20:35:31.571Z,68.13
2019-01-30T20:37:57.523Z,68.17
2019-01-30T20:40:25.635Z,68.01
2019-01-30T20:42:52.859Z,67.84
2019-01-30T20:45:18.919Z,67.93
2019-01-30T20:47:44.800Z,68.21
2019-01-30T20:50:13.695Z,68.66
2019-01-30T20:52:39.609Z,68.33
2019-01-30T20:55:08.271Z,68.50
2019-01-30T20:57:34.179Z,69.01
2019-01-30T21:00:00.333Z,69.13
2019-01-30T21:02:26.313Z,69.31
2019-01-30T21:04:52.219Z,69.37
2019-01-30T21:07:18.147Z,69.12
2019-01-30T21:09:44.047Z,69.21
2019-01-30T21:12:09.995Z,69.19
2019-01-30T21:14:35.893Z,69.70
2019-01-30T21:17:01.825Z,69.02
2019-01-30T21:19:27.701Z,69.08
2019-01-30T21:21:53.603Z,69.23
2019-01-30T21:24:19.522Z,69.67
2019-01-30T21:26:45.356Z,69.19
2019-01-30T21:29:11.291Z,69.26
2019-01-30T21:31:37.254Z,69.85
2019-01-30T21:34:03.252Z,69.39
2019-01-30T21:36:29.162Z,69.85
2019-01-30T21:38:55.081Z,69.61
2019-01-30T21:41:20.960Z,69.51
2019-01-30T21:43:46.868Z,69.79
2019-01-30T21:46:12.757Z,69.13
2019-01-30T21:48:38.680Z,69.23
2019-01-30T21:51:04.628Z,69.24
2019-01-30T21:53:30.514Z,69.10
2019-01-30T21:55:56.422Z,69.16
2019-01-30T21:58:22.295Z,68.89
2019-01-30T22:00:48.206Z,69.21
2019-01-30T22:03:14.085Z,69.26
2019-01-30T22:05:40.106Z,69.89
2019-01-30T22:08:06.080Z,69.93
2019-01-30T22:10:32.050Z,69.46
2019-01-30T22:12:57.945Z,69.55
2019-01-30T22:15:23.912Z,69.37
2019-01-30T22:17:49.807Z,69.88
2019-01-30T22:20:19.496Z,70.32
2019-01-30T22:22:47.333Z,69.99
2019-01-30T22:25:20.257Z,70.27
2019-01-30T22:27:43.441Z,70.22
2019-01-30T22:30:14.814Z,70.55
2019-01-30T22:32:40.748Z,70.00
2019-01-30T22:35:08.225Z,70.10
2019-01-30T22:37:34.136Z,70.14
2019-01-30T22:40:00.022Z,69.94
2019-01-30T22:42:25.949Z,70.36
2019-01-30T22:44:51.842Z,70.17
2019-01-30T22:47:17.710Z,70.17
2019-01-30T22:49:43.618Z,70.16
2019-01-30T22:52:09.532Z,70.10
2019-01-30T22:54:35.467Z,70.18
2019-01-30T22:57:01.426Z,70.59
2019-01-30T22:59:27.353Z,70.43
2019-01-30T23:01:53.479Z,70.46
2019-01-30T23:04:25.912Z,70.34
2019-01-30T23:06:58.657Z,70.78
2019-01-30T23:09:37.501Z,70.58
2019-01-30T23:12:22.622Z,70.72
2019-01-30T23:14:57.630Z,70.43
2019-01-30T23:17:33.279Z,70.44
2019-01-30T23:20:06.108Z,70.14
2019-01-30T23:22:36.026Z,70.32
2019-01-30T23:25:22.486Z,70.43
2019-01-30T23:27:54.714Z,70.78
2019-01-30T23:30:47.286Z,71.07
2019-01-30T23:33:32.075Z,70.86
2019-01-30T23:36:32.246Z,70.87
2019-01-30T23:39:13.779Z,71.40
2019-01-30T23:41:43.484Z,71.85
2019-01-30T23:44:34.560Z,71.79
2019-01-30T23:47:10.285Z,72.75
2019-01-30T23:50:13.782Z,72.81
2019-01-30T23:53:01.083Z,72.54
2019-01-30T23:55:36.877Z,73.33
2019-01-30T23:58:12.424Z,73.86
